Time;durP1;ratioP1;P1;durP2;ratioP2;P2;SDS_P1;SDS_P2;PMS_P1;PMS_P2;Temp;Humidity;BMP_temperature;BMP_pressure;BME280_temperature;BME280_humidity;BME280_pressure;Samples;Min_cycle;Max_cycle;Signal;HPM_P1;HPM_P2
2022/06/30 00:00:02;;;;;;;;;;;;;;;;;;5059602;28;47908;-77
2022/06/30 00:02:32;;;;;;;;;;;;;;;;;;5045743;28;43198;-77
2022/06/30 00:04:58;;;;;;;;;;;;;;;;;;5055048;28;48072;-77
2022/06/30 00:07:24;;;;;;;;;;;;;;;;;;5063289;28;46971;-76
2022/06/30 00:09:51;;;;;;;;;;;;;;;;;;5059252;28;47975;-77
2022/06/30 00:12:17;;;;;;;;;;;;;;;;;;5059843;28;49446;-77
2022/06/30 00:14:43;;;;;;;;;;;;;;;;;;5061356;28;46162;-76
2022/06/30 00:17:10;;;;;;;;;;;;;;;;;;5061555;28;46478;-76
2022/06/30 00:19:36;;;;;;;;;;;;;;;;;;5060435;28;46328;-76
2022/06/30 00:22:05;;;;;;;;;;;;;;;;;;5060506;28;43760;-77
2022/06/30 00:24:31;;;;;;;;;;;;;;;;;;5062625;28;47185;-76
2022/06/30 00:26:57;;;;;;;;;;;;;;;;;;5060077;28;48060;-76
2022/06/30 00:29:24;;;;;;;;;;;;;;;;;;5033140;28;44420;-77
2022/06/30 00:31:50;;;;;;;;;;;;;;;;;;5043128;28;49279;-76
2022/06/30 00:34:16;;;;;;;;;;;;;;;;;;5063170;28;42992;-77
2022/06/30 00:36:43;;;;;;;;;;;;;;;;;;5044572;28;46784;-76
2022/06/30 00:39:11;;;;;;;;;;;;;;;;;;5038971;28;44123;-77
2022/06/30 00:41:37;;;;;;;;;;;;;;;;;;5044153;28;43804;-76
2022/06/30 00:44:04;;;;;;;;;;;;;;;;;;5041136;28;47975;-77
2022/06/30 00:46:30;;;;;;;;;;;;;;;;;;5057111;28;49431;-76
2022/06/30 00:48:56;;;;;;;;;;;;;;;;;;5059600;28;48056;-77
2022/06/30 00:51:22;;;;;;;;;;;;;;;;;;5062144;28;45515;-76
2022/06/30 00:53:49;;;;;;;;;;;;;;;;;;5059267;28;46103;-76
2022/06/30 00:56:15;;;;;;;;;;;;;;;;;;5041132;28;47434;-76
2022/06/30 00:58:42;;;;;;;;;;;;;;;;;;5038416;28;46646;-76
2022/06/30 01:01:08;;;;;;;;;;;;;;;;;;5055371;28;44812;-76
2022/06/30 01:03:34;;;;;;;;;;;;;;;;;;5042455;28;46816;-76
2022/06/30 01:06:00;;;;;;;;;;;;;;;;;;5058972;28;48123;-76
2022/06/30 01:08:27;;;;;;;;;;;;;;;;;;5058827;28;45798;-77
2022/06/30 01:13:38;;;;;;;;;;;;;;;;;;5057878;28;44710;-77
2022/06/30 01:16:04;;;;;;;;;;;;;;;;;;5042777;28;44691;-78
2022/06/30 01:18:31;;;;;;;;;;;;;;;;;;5038470;28;48531;-77
2022/06/30 01:20:57;;;;;;;;;;;;;;;;;;5043987;28;45605;-77
2022/06/30 01:23:23;;;;;;;;;;;;;;;;;;5060489;28;47409;-76
2022/06/30 01:25:51;;;;;;;;;;;;;;;;;;5061482;28;45820;-77
2022/06/30 01:28:18;;;;;;;;;;;;;;;;;;5057821;28;42014;-78
2022/06/30 01:30:44;;;;;;;;;;;;;;;;;;5059217;28;43379;-77
2022/06/30 01:33:10;;;;;;;;;;;;;;;;;;5043326;28;47006;-77
2022/06/30 01:35:36;;;;;;;;;;;;;;;;;;5038523;28;44870;-77
2022/06/30 01:38:03;;;;;;;;;;;;;;;;;;5040526;28;45265;-78
2022/06/30 01:40:29;;;;;;;;;;;;;;;;;;5041101;28;44173;-78
2022/06/30 01:42:55;;;;;;;;;;;;;;;;;;5043926;28;46597;-77
2022/06/30 01:45:22;;;;;;;;;;;;;;;;;;5040267;28;45999;-76
2022/06/30 01:47:48;;;;;;;;;;;;;;;;;;5061526;28;43338;-77
2022/06/30 01:50:14;;;;;;;;;;;;;;;;;;5037443;28;46505;-76
2022/06/30 01:52:41;;;;;;;;;;;;;;;;;;5041827;28;45502;-77
2022/06/30 01:55:07;;;;;;;;;;;;;;;;;;5060506;28;44634;-77
2022/06/30 01:57:33;;;;;;;;;;;;;;;;;;5058048;28;46982;-77
2022/06/30 01:59:59;;;;;;;;;;;;;;;;;;5058318;28;45816;-77
2022/06/30 02:02:26;;;;;;;;;;;;;;;;;;5059887;28;49257;-77
2022/06/30 02:04:53;;;;;;;;;;;;;;;;;;5058545;28;45110;-77
2022/06/30 02:07:19;;;;;;;;;;;;;;;;;;5042883;28;42792;-76
2022/06/30 02:09:45;;;;;;;;;;;;;;;;;;5054659;28;47634;-77
2022/06/30 02:14:57;;;;;;;;;;;;;;;;;;5058899;28;46393;-77
2022/06/30 02:17:23;;;;;;;;;;;;;;;;;;5042564;28;47201;-77
2022/06/30 02:19:49;;;;;;;;;;;;;;;;;;5062744;28;43291;-76
2022/06/30 02:22:15;;;;;;;;;;;;;;;;;;5045156;28;45487;-78
2022/06/30 02:24:42;;;;;;;;;;;;;;;;;;5061709;28;47005;-77
2022/06/30 02:27:08;;;;;;;;;;;;;;;;;;5054679;28;43871;-77
2022/06/30 02:29:34;;;;;;;;;;;;;;;;;;5061854;28;47529;-78
2022/06/30 02:32:00;;;;;;;;;;;;;;;;;;5041984;28;43777;-77
2022/06/30 02:34:28;;;;;;;;;;;;;;;;;;5044542;28;44755;-77
2022/06/30 02:36:54;;;;;;;;;;;;;;;;;;5064663;28;44861;-77
2022/06/30 02:39:20;;;;;;;;;;;;;;;;;;5063604;28;45992;-77
2022/06/30 02:41:47;;;;;;;;;;;;;;;;;;5047278;28;47394;-77
2022/06/30 02:44:13;;;;;;;;;;;;;;;;;;5060511;28;45672;-77
2022/06/30 02:46:39;;;;;;;;;;;;;;;;;;5066054;28;42270;-77
2022/06/30 02:49:06;;;;;;;;;;;;;;;;;;5046104;28;47796;-77
2022/06/30 02:51:32;;;;;;;;;;;;;;;;;;5063146;28;48187;-77
2022/06/30 02:53:58;;;;;;;;;;;;;;;;;;5064134;28;45544;-77
2022/06/30 02:56:25;;;;;;;;;;;;;;;;;;5047180;28;47852;-77
2022/06/30 02:58:51;;;;;;;;;;;;;;;;;;5060188;28;48344;-77
2022/06/30 03:01:17;;;;;;;;;;;;;;;;;;5047027;28;42996;-77
2022/06/30 03:03:43;;;;;;;;;;;;;;;;;;5043473;28;47229;-77
2022/06/30 03:06:10;;;;;;;;;;;;;;;;;;5053287;28;45165;-77
2022/06/30 03:08:36;;;;;;;;;;;;;;;;;;5058138;28;47636;-77
2022/06/30 03:11:02;;;;;;;;;;;;;;;;;;5060574;28;46634;-77
2022/06/30 03:13:28;;;;;;;;;;;;;;;;;;5040968;28;45950;-77
2022/06/30 03:15:55;;;;;;;;;;;;;;;;;;5042541;28;46484;-77
2022/06/30 03:18:21;;;;;;;;;;;;;;;;;;5041533;28;48525;-77
2022/06/30 03:20:48;;;;;;;;;;;;;;;;;;5041980;28;44595;-77
2022/06/30 03:23:14;;;;;;;;;;;;;;;;;;5061042;28;48068;-77
2022/06/30 03:25:40;;;;;;;;;;;;;;;;;;5061909;28;42809;-76
2022/06/30 03:28:06;;;;;;;;;;;;;;;;;;5042859;28;47784;-76
2022/06/30 03:30:37;;;;;;;;;;;;;;;;;;5045162;28;47344;-77
2022/06/30 03:33:04;;;;;;;;;;;;;;;;;;5042886;28;42277;-77
2022/06/30 03:35:30;;;;;;;;;;;;;;;;;;5044688;28;46845;-76
2022/06/30 03:37:56;;;;;;;;;;;;;;;;;;5059600;28;46986;-77
2022/06/30 03:40:23;;;;;;;;;;;;;;;;;;5058519;28;44441;-77
2022/06/30 03:42:49;;;;;;;;;;;;;;;;;;5045280;28;46461;-76
2022/06/30 03:45:15;;;;;;;;;;;;;;;;;;5042748;28;45807;-76
2022/06/30 03:47:41;;;;;;;;;;;;;;;;;;5063980;28;47494;-76
2022/06/30 03:50:09;;;;;;;;;;;;;;;;;;5041856;28;48037;-77
2022/06/30 03:52:35;;;;;;;;;;;;;;;;;;5060209;28;42481;-77
2022/06/30 03:55:01;;;;;;;;;;;;;;;;;;5039283;28;47541;-76
2022/06/30 03:57:27;;;;;;;;;;;;;;;;;;5044928;28;48096;-76
2022/06/30 03:59:54;;;;;;;;;;;;;;;;;;5045165;28;45944;-76
2022/06/30 04:02:20;;;;;;;;;;;;;;;;;;5045411;28;47454;-76
2022/06/30 04:04:46;;;;;;;;;;;;;;;;;;5061189;28;47962;-77
2022/06/30 04:07:12;;;;;;;;;;;;;;;;;;5061682;28;46392;-76
2022/06/30 04:09:39;;;;;;;;;;;;;;;;;;5038228;28;46833;-77
2022/06/30 04:12:09;;;;;;;;;;;;;;;;;;5059554;28;46620;-78
2022/06/30 04:14:35;;;;;;;;;;;;;;;;;;5041287;28;47558;-78
2022/06/30 04:17:02;;;;;;;;;;;;;;;;;;5044082;28;48617;-78
2022/06/30 04:19:28;;;;;;;;;;;;;;;;;;5059740;28;44737;-77
2022/06/30 04:21:54;;;;;;;;;;;;;;;;;;5042909;28;46505;-78
2022/06/30 04:24:20;;;;;;;;;;;;;;;;;;5060225;28;47014;-77
2022/06/30 04:26:47;;;;;;;;;;;;;;;;;;5058541;28;46783;-78
2022/06/30 04:29:14;;;;;;;;;;;;;;;;;;5044121;28;48138;-79
2022/06/30 04:34:25;;;;;;;;;;;;;;;;;;5055871;28;44891;-78
2022/06/30 04:36:51;;;;;;;;;;;;;;;;;;5061975;28;48320;-80
2022/06/30 04:39:18;;;;;;;;;;;;;;;;;;5059369;28;44920;-79
2022/06/30 04:41:44;;;;;;;;;;;;;;;;;;5061415;28;44424;-77
2022/06/30 04:44:10;;;;;;;;;;;;;;;;;;5059465;28;46927;-77
2022/06/30 04:46:36;;;;;;;;;;;;;;;;;;5058549;28;44734;-78
2022/06/30 04:49:03;;;;;;;;;;;;;;;;;;5059136;28;44491;-78
2022/06/30 04:51:29;;;;;;;;;;;;;;;;;;5043803;28;44705;-78
2022/06/30 04:53:55;;;;;;;;;;;;;;;;;;5059377;28;47752;-77
2022/06/30 04:56:22;;;;;;;;;;;;;;;;;;5042575;28;48522;-78
2022/06/30 04:58:48;;;;;;;;;;;;;;;;;;5043873;28;45173;-78
2022/06/30 05:01:14;;;;;;;;;;;;;;;;;;5043054;28;44552;-77
2022/06/30 05:03:42;;;;;;;;;;;;;;;;;;5060431;28;20903;-78
2022/06/30 05:06:08;;;;;;;;;;;;;;;;;;5058775;28;42668;-79
2022/06/30 05:08:34;;;;;;;;;;;;;;;;;;5040908;28;47656;-78
2022/06/30 05:11:00;;;;;;;;;;;;;;;;;;5061746;28;35966;-78
2022/06/30 05:13:26;;;;;;;;;;;;;;;;;;5060088;28;46603;-78
2022/06/30 05:15:53;;;;;;;;;;;;;;;;;;5060090;28;47970;-77
2022/06/30 05:18:19;;;;;;;;;;;;;;;;;;5056244;28;44629;-79
2022/06/30 05:20:45;;;;;;;;;;;;;;;;;;5044237;28;47583;-77
2022/06/30 05:23:12;;;;;;;;;;;;;;;;;;5059578;28;48089;-78
2022/06/30 05:28:23;;;;;;;;;;;;;;;;;;5060332;28;45182;-79
2022/06/30 05:30:49;;;;;;;;;;;;;;;;;;5069478;28;46846;-77
2022/06/30 05:33:19;;;;;;;;;;;;;;;;;;5053079;28;48121;-79
2022/06/30 05:35:46;;;;;;;;;;;;;;;;;;5056304;28;50893;-77
2022/06/30 05:38:12;;;;;;;;;;;;;;;;;;5042685;28;45821;-78
2022/06/30 05:40:38;;;;;;;;;;;;;;;;;;5041688;28;45037;-79
2022/06/30 05:43:04;;;;;;;;;;;;;;;;;;5059445;28;46982;-77
2022/06/30 05:45:31;;;;;;;;;;;;;;;;;;5041283;28;43486;-78
2022/06/30 05:47:57;;;;;;;;;;;;;;;;;;5041512;28;44691;-79
2022/06/30 05:50:23;;;;;;;;;;;;;;;;;;5057655;28;48188;-78
2022/06/30 05:52:53;;;;;;;;;;;;;;;;;;5058571;28;45578;-78
2022/06/30 05:55:19;;;;;;;;;;;;;;;;;;5040841;28;46931;-77
2022/06/30 05:57:45;;;;;;;;;;;;;;;;;;5062826;28;45608;-78
2022/06/30 06:00:11;;;;;;;;;;;;;;;;;;5064145;28;46988;-79
2022/06/30 06:02:37;;;;;;;;;;;;;;;;;;5059397;28;47010;-78
2022/06/30 06:05:04;;;;;;;;;;;;;;;;;;5061868;28;46038;-78
2022/06/30 06:07:30;;;;;;;;;;;;;;;;;;5042903;28;47392;-78
2022/06/30 06:09:56;;;;;;;;;;;;;;;;;;5036156;28;47944;-78
2022/06/30 06:12:27;;;;;;;;;;;;;;;;;;5065485;28;45414;-80
2022/06/30 06:14:53;;;;;;;;;;;;;;;;;;5061723;28;47896;-80
2022/06/30 06:17:20;;;;;;;;;;;;;;;;;;5056987;28;46292;-81
2022/06/30 06:19:46;;;;;;;;;;;;;;;;;;5061233;28;46827;-78
2022/06/30 06:22:12;;;;;;;;;;;;;;;;;;5048094;28;48183;-79
2022/06/30 06:24:38;;;;;;;;;;;;;;;;;;5038358;28;45944;-78
2022/06/30 06:27:05;;;;;;;;;;;;;;;;;;5043417;28;46890;-78
2022/06/30 06:29:31;;;;;;;;;;;;;;;;;;5060728;28;50123;-79
2022/06/30 06:31:57;;;;;;;;;;;;;;;;;;5064406;28;46147;-78
2022/06/30 06:34:23;;;;;;;;;;;;;;;;;;5064040;28;47605;-77
2022/06/30 06:36:50;;;;;;;;;;;;;;;;;;5043950;28;48085;-78
2022/06/30 06:39:16;;;;;;;;;;;;;;;;;;5044750;28;48012;-79
2022/06/30 06:41:43;;;;;;;;;;;;;;;;;;5034954;28;48058;-80
2022/06/30 06:44:09;;;;;;;;;;;;;;;;;;5035732;28;44723;-81
2022/06/30 06:46:35;;;;;;;;;;;;;;;;;;5043376;28;46480;-79
2022/06/30 06:49:01;;;;;;;;;;;;;;;;;;5063565;28;43840;-78
2022/06/30 06:51:28;;;;;;;;;;;;;;;;;;5064455;28;43680;-78
2022/06/30 06:53:55;;;;;;;;;;;;;;;;;;5063346;28;47993;-79
2022/06/30 06:56:21;;;;;;;;;;;;;;;;;;5033487;28;47905;-79
2022/06/30 06:58:48;;;;;;;;;;;;;;;;;;5048288;28;43835;-78
2022/06/30 07:01:15;;;;;;;;;;;;;;;;;;5049009;28;48144;-78
2022/06/30 07:03:41;;;;;;;;;;;;;;;;;;5058836;28;45104;-78
2022/06/30 07:06:08;;;;;;;;;;;;;;;;;;5055952;28;46662;-78
2022/06/30 07:08:35;;;;;;;;;;;;;;;;;;5060668;28;47687;-78
2022/06/30 07:11:03;;;;;;;;;;;;;;;;;;5057113;28;44809;-80
2022/06/30 07:13:29;;;;;;;;;;;;;;;;;;5033529;28;44732;-78
2022/06/30 07:15:55;;;;;;;;;;;;;;;;;;5041996;28;48627;-78
2022/06/30 07:18:21;;;;;;;;;;;;;;;;;;5064105;28;44537;-79
2022/06/30 07:20:48;;;;;;;;;;;;;;;;;;5055649;28;47013;-78
2022/06/30 07:23:14;;;;;;;;;;;;;;;;;;5043308;28;44741;-77
2022/06/30 07:25:56;;;;;;;;;;;;;;;;;;5041688;28;44983;-80
2022/06/30 07:28:23;;;;;;;;;;;;;;;;;;5047182;28;45542;-79
2022/06/30 07:31:10;;;;;;;;;;;;;;;;;;5057707;28;19924;-78
2022/06/30 07:33:36;;;;;;;;;;;;;;;;;;5037848;28;46483;-80
2022/06/30 07:36:02;;;;;;;;;;;;;;;;;;5063358;28;46981;-77
2022/06/30 07:38:29;;;;;;;;;;;;;;;;;;5054583;28;44727;-78
2022/06/30 07:40:55;;;;;;;;;;;;;;;;;;5062340;28;47738;-77
2022/06/30 07:43:21;;;;;;;;;;;;;;;;;;5056951;28;44609;-80
2022/06/30 07:45:47;;;;;;;;;;;;;;;;;;5051953;28;48039;-79
2022/06/30 07:48:14;;;;;;;;;;;;;;;;;;5059688;28;47639;-77
2022/06/30 07:50:40;;;;;;;;;;;;;;;;;;5054108;28;45666;-76
2022/06/30 07:53:06;;;;;;;;;;;;;;;;;;5063025;28;47462;-80
2022/06/30 07:55:32;;;;;;;;;;;;;;;;;;5048624;28;48144;-80
2022/06/30 07:57:59;;;;;;;;;;;;;;;;;;5060306;28;44635;-79
2022/06/30 08:00:25;;;;;;;;;;;;;;;;;;5061828;28;47549;-78
2022/06/30 08:02:52;;;;;;;;;;;;;;;;;;5048008;28;45514;-77
2022/06/30 08:05:18;;;;;;;;;;;;;;;;;;5042202;28;46480;-78
2022/06/30 08:07:44;;;;;;;;;;;;;;;;;;5057195;28;48092;-78
2022/06/30 08:10:11;;;;;;;;;;;;;;;;;;5062752;28;44733;-79
2022/06/30 08:12:37;;;;;;;;;;;;;;;;;;5057653;28;46496;-79
2022/06/30 08:15:03;;;;;;;;;;;;;;;;;;5033994;28;47005;-77
2022/06/30 08:17:31;;;;;;;;;;;;;;;;;;5060864;28;46000;-80
2022/06/30 08:19:58;;;;;;;;;;;;;;;;;;5053329;28;46970;-79
2022/06/30 08:22:24;;;;;;;;;;;;;;;;;;5055969;28;48363;-78
2022/06/30 08:24:50;;;;;;;;;;;;;;;;;;5036248;28;43438;-79
2022/06/30 08:27:16;;;;;;;;;;;;;;;;;;5062516;28;47323;-79
2022/06/30 08:29:43;;;;;;;;;;;;;;;;;;5059006;28;44887;-79
2022/06/30 08:32:09;;;;;;;;;;;;;;;;;;5055313;28;47412;-79
2022/06/30 08:34:43;;;;;;;;;;;;;;;;;;5092206;27;19954;-80
2022/06/30 08:37:09;;;;;;;;;;;;;;;;;;5085235;27;47009;-80
2022/06/30 08:42:21;;;;;;;;;;;;;;;;;;5096382;28;46276;-77
2022/06/30 08:47:33;;;;;;;;;;;;;;;;;;5097055;27;42571;-78
2022/06/30 08:49:59;;;;;;;;;;;;;;;;;;5089373;27;47395;-77
2022/06/30 08:52:28;;;;;;;;;;;;;;;;;;5091806;27;48320;-79
2022/06/30 08:54:55;;;;;;;;;;;;;;;;;;5090902;28;42441;-77
2022/06/30 08:57:22;;;;;;;;;;;;;;;;;;5094480;28;47310;-78
2022/06/30 08:59:48;;;;;;;;;;;;;;;;;;5094613;28;44821;-78
2022/06/30 09:02:14;;;;;;;;;;;;;;;;;;5091358;28;46739;-79
2022/06/30 09:04:40;;;;;;;;;;;;;;;;;;5095111;28;48403;-82
2022/06/30 09:07:07;;;;;;;;;;;;;;;;;;5095385;28;43291;-79
2022/06/30 09:09:33;;;;;;;;;;;;;;;;;;5092544;28;47516;-78
2022/06/30 09:11:59;;;;;;;;;;;;;;;;;;5086825;28;48370;-78
2022/06/30 09:14:25;;;;;;;;;;;;;;;;;;5089163;27;45152;-78
2022/06/30 09:16:52;;;;;;;;;;;;;;;;;;5089074;28;47436;-79
2022/06/30 09:19:18;;;;;;;;;;;;;;;;;;5094401;28;43521;-78
2022/06/30 09:21:45;;;;;;;;;;;;;;;;;;5089805;28;47444;-77
2022/06/30 09:24:11;;;;;;;;;;;;;;;;;;5091373;28;48057;-77
2022/06/30 09:26:37;;;;;;;;;;;;;;;;;;5097637;27;44169;-79
2022/06/30 09:29:04;;;;;;;;;;;;;;;;;;5090533;27;47450;-81
2022/06/30 09:31:50;;;;;;;;;;;;;;;;;;5097673;27;19932;-78
2022/06/30 09:34:16;;;;;;;;;;;;;;;;;;5093801;27;44999;-79
2022/06/30 09:36:43;;;;;;;;;;;;;;;;;;5094660;28;47883;-78
2022/06/30 09:39:10;;;;;;;;;;;;;;;;;;5083109;27;47951;-77
2022/06/30 09:41:36;;;;;;;;;;;;;;;;;;5088999;28;46178;-78
2022/06/30 09:44:02;;;;;;;;;;;;;;;;;;5096397;27;46960;-79
2022/06/30 09:46:28;;;;;;;;;;;;;;;;;;5082533;28;44821;-80
2022/06/30 09:48:55;;;;;;;;;;;;;;;;;;5079628;28;47509;-78
2022/06/30 09:51:21;;;;;;;;;;;;;;;;;;5085248;28;48086;-78
2022/06/30 09:53:47;;;;;;;;;;;;;;;;;;5075231;28;44036;-79
2022/06/30 09:56:13;;;;;;;;;;;;;;;;;;5083856;28;46344;-78
2022/06/30 09:58:41;;;;;;;;;;;;;;;;;;5079155;28;48847;-77
2022/06/30 10:01:07;;;;;;;;;;;;;;;;;;5080767;28;44832;-79
2022/06/30 10:03:33;;;;;;;;;;;;;;;;;;5080301;28;45966;-78
2022/06/30 10:06:00;;;;;;;;;;;;;;;;;;5080531;28;44163;-78
2022/06/30 10:08:26;;;;;;;;;;;;;;;;;;5077627;28;47500;-78
2022/06/30 10:10:52;;;;;;;;;;;;;;;;;;5082694;28;46535;-80
2022/06/30 10:13:19;;;;;;;;;;;;;;;;;;5083811;28;43023;-79
2022/06/30 10:15:45;;;;;;;;;;;;;;;;;;5074937;28;46244;-79
2022/06/30 10:18:11;;;;;;;;;;;;;;;;;;5082870;28;47157;-78
2022/06/30 10:20:38;;;;;;;;;;;;;;;;;;5080997;28;43685;-79
2022/06/30 10:23:04;;;;;;;;;;;;;;;;;;5081854;28;47410;-78
2022/06/30 10:25:32;;;;;;;;;;;;;;;;;;5081616;28;43703;-78
2022/06/30 10:27:58;;;;;;;;;;;;;;;;;;5082631;28;47380;-76
2022/06/30 10:30:24;;;;;;;;;;;;;;;;;;5082092;28;48009;-77
2022/06/30 10:32:51;;;;;;;;;;;;;;;;;;5082264;28;43525;-77
2022/06/30 10:35:17;;;;;;;;;;;;;;;;;;5081200;28;45128;-78
2022/06/30 10:37:43;;;;;;;;;;;;;;;;;;5074904;28;47581;-77
2022/06/30 10:40:10;;;;;;;;;;;;;;;;;;5071338;28;42429;-78
2022/06/30 10:42:36;;;;;;;;;;;;;;;;;;5074945;28;45270;-78
2022/06/30 10:45:02;;;;;;;;;;;;;;;;;;5077792;28;36054;-78
2022/06/30 10:47:48;;;;;;;;;;;;;;;;;;5076371;28;19928;-78
2022/06/30 10:50:15;;;;;;;;;;;;;;;;;;5075164;28;47480;-77
2022/06/30 10:52:41;;;;;;;;;;;;;;;;;;5080103;28;40292;-77
2022/06/30 10:55:07;;;;;;;;;;;;;;;;;;5078137;28;46241;-79
2022/06/30 10:57:34;;;;;;;;;;;;;;;;;;5074956;28;48116;-77
2022/06/30 11:00:00;;;;;;;;;;;;;;;;;;5073415;28;43846;-78
2022/06/30 11:02:26;;;;;;;;;;;;;;;;;;5078384;28;47784;-79
2022/06/30 11:04:53;;;;;;;;;;;;;;;;;;5073434;28;47315;-80
2022/06/30 11:07:19;;;;;;;;;;;;;;;;;;5073923;28;45038;-80
2022/06/30 11:09:49;;;;;;;;;;;;;;;;;;5078654;28;45626;-77
2022/06/30 11:12:16;;;;;;;;;;;;;;;;;;5077086;28;43919;-78
2022/06/30 11:14:42;;;;;;;;;;;;;;;;;;5074287;28;46338;-78
2022/06/30 11:17:08;;;;;;;;;;;;;;;;;;5073351;28;48155;-80
2022/06/30 11:19:37;;;;;;;;;;;;;;;;;;5064328;28;43976;-77
2022/06/30 11:22:03;;;;;;;;;;;;;;;;;;5071576;28;47204;-78
2022/06/30 11:24:30;;;;;;;;;;;;;;;;;;5071652;28;47022;-78
2022/06/30 11:29:41;;;;;;;;;;;;;;;;;;5069672;28;46922;-78
2022/06/30 11:32:10;;;;;;;;;;;;;;;;;;5074480;28;44171;-79
2022/06/30 11:34:40;;;;;;;;;;;;;;;;;;5080357;28;47956;-77
2022/06/30 11:37:10;;;;;;;;;;;;;;;;;;5080674;28;47126;-77
2022/06/30 11:39:36;;;;;;;;;;;;;;;;;;5072342;28;43605;-78
2022/06/30 11:42:06;;;;;;;;;;;;;;;;;;5077817;28;46365;-77
2022/06/30 11:44:37;;;;;;;;;;;;;;;;;;5080412;28;47043;-79
2022/06/30 11:47:04;;;;;;;;;;;;;;;;;;5068796;28;43701;-77
2022/06/30 11:49:30;;;;;;;;;;;;;;;;;;5077864;28;45836;-77
2022/06/30 11:51:57;;;;;;;;;;;;;;;;;;5076946;28;43517;-77
2022/06/30 11:54:23;;;;;;;;;;;;;;;;;;5075332;28;46202;-78
2022/06/30 11:56:50;;;;;;;;;;;;;;;;;;5072231;28;48162;-78
2022/06/30 11:59:16;;;;;;;;;;;;;;;;;;5073756;28;41965;-77
2022/06/30 12:01:43;;;;;;;;;;;;;;;;;;5071592;28;46622;-78
2022/06/30 12:04:09;;;;;;;;;;;;;;;;;;5081219;28;47391;-79
2022/06/30 12:06:35;;;;;;;;;;;;;;;;;;5075059;28;43907;-77
2022/06/30 12:09:01;;;;;;;;;;;;;;;;;;5082047;28;44178;-79
2022/06/30 12:11:30;;;;;;;;;;;;;;;;;;5079017;28;47972;-79
2022/06/30 12:13:56;;;;;;;;;;;;;;;;;;5070093;28;46360;-81
2022/06/30 12:16:22;;;;;;;;;;;;;;;;;;5066716;28;47610;-78
2022/06/30 12:18:49;;;;;;;;;;;;;;;;;;5067676;28;45081;-78
2022/06/30 12:21:15;;;;;;;;;;;;;;;;;;5073582;28;46060;-78
2022/06/30 12:23:42;;;;;;;;;;;;;;;;;;5077009;28;47135;-78
2022/06/30 12:26:08;;;;;;;;;;;;;;;;;;5078782;28;43533;-80
2022/06/30 12:28:34;;;;;;;;;;;;;;;;;;5080715;28;46685;-78
2022/06/30 12:31:01;;;;;;;;;;;;;;;;;;5072597;28;47011;-78
2022/06/30 12:33:27;;;;;;;;;;;;;;;;;;5081485;28;44553;-79
2022/06/30 12:35:54;;;;;;;;;;;;;;;;;;5072785;28;48377;-79
2022/06/30 12:38:24;;;;;;;;;;;;;;;;;;5072081;28;46671;-82
2022/06/30 12:40:51;;;;;;;;;;;;;;;;;;5070810;28;46759;-77
2022/06/30 12:43:17;;;;;;;;;;;;;;;;;;5072886;28;46071;-78
2022/06/30 12:45:44;;;;;;;;;;;;;;;;;;5079641;28;42309;-77
2022/06/30 12:48:10;;;;;;;;;;;;;;;;;;5074711;28;46385;-78
2022/06/30 12:50:36;;;;;;;;;;;;;;;;;;5077826;28;46046;-77
2022/06/30 12:53:02;;;;;;;;;;;;;;;;;;5081291;28;44685;-78
2022/06/30 12:55:29;;;;;;;;;;;;;;;;;;5080969;28;46902;-77
2022/06/30 12:57:55;;;;;;;;;;;;;;;;;;5076321;28;40591;-77
2022/06/30 13:00:21;;;;;;;;;;;;;;;;;;5079966;28;45100;-78
2022/06/30 13:02:48;;;;;;;;;;;;;;;;;;5074867;28;47025;-77
2022/06/30 13:05:14;;;;;;;;;;;;;;;;;;5077526;28;43897;-78
2022/06/30 13:07:40;;;;;;;;;;;;;;;;;;5076470;28;46320;-77
2022/06/30 13:10:06;;;;;;;;;;;;;;;;;;5074725;28;47014;-78
2022/06/30 13:12:33;;;;;;;;;;;;;;;;;;5071411;28;45133;-78
2022/06/30 13:14:59;;;;;;;;;;;;;;;;;;5081676;28;47486;-78
2022/06/30 13:17:25;;;;;;;;;;;;;;;;;;5077566;28;44912;-78
2022/06/30 13:19:52;;;;;;;;;;;;;;;;;;5081967;28;46885;-79
2022/06/30 13:22:18;;;;;;;;;;;;;;;;;;5082184;28;47951;-79
2022/06/30 13:24:44;;;;;;;;;;;;;;;;;;5078419;28;45050;-78
2022/06/30 13:27:12;;;;;;;;;;;;;;;;;;5080553;28;47462;-78
2022/06/30 13:29:39;;;;;;;;;;;;;;;;;;5073754;28;48058;-78
2022/06/30 13:32:05;;;;;;;;;;;;;;;;;;5075035;28;44009;-78
2022/06/30 13:34:32;;;;;;;;;;;;;;;;;;5082896;28;47509;-77
2022/06/30 13:36:58;;;;;;;;;;;;;;;;;;5082306;28;47286;-78
2022/06/30 13:39:24;;;;;;;;;;;;;;;;;;5082657;28;46568;-78
2022/06/30 13:41:51;;;;;;;;;;;;;;;;;;5083497;28;46991;-77
2022/06/30 13:44:17;;;;;;;;;;;;;;;;;;5078808;28;43693;-78
2022/06/30 13:46:44;;;;;;;;;;;;;;;;;;5075933;28;47610;-78
2022/06/30 13:49:10;;;;;;;;;;;;;;;;;;5076249;28;47369;-78
2022/06/30 13:51:41;;;;;;;;;;;;;;;;;;5084352;28;42855;-78
2022/06/30 13:54:07;;;;;;;;;;;;;;;;;;5080153;28;47948;-77
2022/06/30 13:56:34;;;;;;;;;;;;;;;;;;5074416;28;46543;-78
2022/06/30 13:59:00;;;;;;;;;;;;;;;;;;5075501;28;41358;-78
2022/06/30 14:01:27;;;;;;;;;;;;;;;;;;5078614;28;48607;-78
2022/06/30 14:03:53;;;;;;;;;;;;;;;;;;5076133;28;44079;-78
2022/06/30 14:06:19;;;;;;;;;;;;;;;;;;5075571;28;44769;-77
2022/06/30 14:08:45;;;;;;;;;;;;;;;;;;5080415;28;48095;-77
2022/06/30 14:11:12;;;;;;;;;;;;;;;;;;5078154;28;44738;-77
2022/06/30 14:13:39;;;;;;;;;;;;;;;;;;5083079;28;46264;-78
2022/06/30 14:16:06;;;;;;;;;;;;;;;;;;5071823;28;47236;-78
2022/06/30 14:18:33;;;;;;;;;;;;;;;;;;5074756;28;42514;-79
2022/06/30 14:21:01;;;;;;;;;;;;;;;;;;5076259;28;47281;-78
2022/06/30 14:23:27;;;;;;;;;;;;;;;;;;5082337;28;40591;-78
2022/06/30 14:25:55;;;;;;;;;;;;;;;;;;5073058;28;46448;-79
2022/06/30 14:28:21;;;;;;;;;;;;;;;;;;5079942;28;47793;-77
2022/06/30 14:30:48;;;;;;;;;;;;;;;;;;5072387;28;43934;-78
2022/06/30 14:33:14;;;;;;;;;;;;;;;;;;5075339;28;47797;-78
2022/06/30 14:35:41;;;;;;;;;;;;;;;;;;5080836;28;48402;-77
2022/06/30 14:38:07;;;;;;;;;;;;;;;;;;5075407;28;44108;-78
2022/06/30 14:40:33;;;;;;;;;;;;;;;;;;5077195;28;46385;-77
2022/06/30 14:43:00;;;;;;;;;;;;;;;;;;5078513;28;47260;-77
2022/06/30 14:45:29;;;;;;;;;;;;;;;;;;5080815;28;46365;-78
2022/06/30 14:47:55;;;;;;;;;;;;;;;;;;5076648;28;44617;-77
2022/06/30 14:50:22;;;;;;;;;;;;;;;;;;5081402;28;44002;-77
2022/06/30 14:52:48;;;;;;;;;;;;;;;;;;5070381;28;47820;-78
2022/06/30 14:55:14;;;;;;;;;;;;;;;;;;5074680;28;49548;-78
2022/06/30 14:57:43;;;;;;;;;;;;;;;;;;5080885;28;44001;-78
2022/06/30 15:00:09;;;;;;;;;;;;;;;;;;5080073;28;46366;-79
2022/06/30 15:02:39;;;;;;;;;;;;;;;;;;5075344;28;47093;-80
2022/06/30 15:05:05;;;;;;;;;;;;;;;;;;5074677;28;47407;-78
2022/06/30 15:07:31;;;;;;;;;;;;;;;;;;5078742;28;47764;-79
2022/06/30 15:09:58;;;;;;;;;;;;;;;;;;5074320;28;44814;-79
2022/06/30 15:12:24;;;;;;;;;;;;;;;;;;5082362;28;46389;-77
2022/06/30 15:14:50;;;;;;;;;;;;;;;;;;5079694;28;46972;-77
2022/06/30 15:17:17;;;;;;;;;;;;;;;;;;5077885;28;45595;-78
2022/06/30 15:19:43;;;;;;;;;;;;;;;;;;5082838;28;47517;-78
2022/06/30 15:24:54;;;;;;;;;;;;;;;;;;5062682;28;43712;-78
2022/06/30 15:27:21;;;;;;;;;;;;;;;;;;5062051;28;47000;-78
2022/06/30 15:29:50;;;;;;;;;;;;;;;;;;5071338;28;43740;-77
2022/06/30 15:32:19;;;;;;;;;;;;;;;;;;5071132;28;46345;-78
2022/06/30 15:34:46;;;;;;;;;;;;;;;;;;5073354;28;48356;-77
2022/06/30 15:37:30;;;;;;;;;;;;;;;;;;5080100;28;44003;-77
2022/06/30 15:39:56;;;;;;;;;;;;;;;;;;5078727;28;46523;-78
2022/06/30 15:42:22;;;;;;;;;;;;;;;;;;5077594;28;46771;-78
2022/06/30 15:44:49;;;;;;;;;;;;;;;;;;5072752;28;42653;-78
2022/06/30 15:47:15;;;;;;;;;;;;;;;;;;5076089;28;46364;-79
2022/06/30 15:49:41;;;;;;;;;;;;;;;;;;5073868;28;42225;-77
2022/06/30 15:52:08;;;;;;;;;;;;;;;;;;5084152;28;46174;-80
2022/06/30 15:54:34;;;;;;;;;;;;;;;;;;5074040;28;46414;-80
2022/06/30 15:57:00;;;;;;;;;;;;;;;;;;5076067;28;43851;-78
2022/06/30 15:59:27;;;;;;;;;;;;;;;;;;5067679;28;45015;-82
2022/06/30 16:01:53;;;;;;;;;;;;;;;;;;5075070;28;50133;-80
2022/06/30 16:04:19;;;;;;;;;;;;;;;;;;5075699;28;45587;-75
2022/06/30 16:06:46;;;;;;;;;;;;;;;;;;5076321;28;44040;-78
2022/06/30 16:09:12;;;;;;;;;;;;;;;;;;5072693;28;48209;-82
2022/06/30 16:11:39;;;;;;;;;;;;;;;;;;5074121;28;45914;-79
2022/06/30 16:14:05;;;;;;;;;;;;;;;;;;5080621;28;45435;-80
2022/06/30 16:16:31;;;;;;;;;;;;;;;;;;5071623;28;44213;-78
2022/06/30 16:18:58;;;;;;;;;;;;;;;;;;5076169;28;46818;-82
2022/06/30 16:21:24;;;;;;;;;;;;;;;;;;5072337;28;46862;-78
2022/06/30 16:23:52;;;;;;;;;;;;;;;;;;5076211;28;41183;-78
2022/06/30 16:26:18;;;;;;;;;;;;;;;;;;5073483;28;47955;-79
2022/06/30 16:28:44;;;;;;;;;;;;;;;;;;5070185;28;48125;-78
2022/06/30 16:31:10;;;;;;;;;;;;;;;;;;5072377;28;44430;-79
2022/06/30 16:33:37;;;;;;;;;;;;;;;;;;5073713;28;47086;-79
2022/06/30 16:36:05;;;;;;;;;;;;;;;;;;5073692;28;43404;-79
2022/06/30 16:38:31;;;;;;;;;;;;;;;;;;5074514;28;46856;-79
2022/06/30 16:40:57;;;;;;;;;;;;;;;;;;5071275;28;48304;-78
2022/06/30 16:43:23;;;;;;;;;;;;;;;;;;5077409;28;42176;-79
2022/06/30 16:45:50;;;;;;;;;;;;;;;;;;5083799;28;46353;-78
2022/06/30 16:48:17;;;;;;;;;;;;;;;;;;5071302;28;44650;-83
2022/06/30 16:50:43;;;;;;;;;;;;;;;;;;5076530;28;45207;-82
2022/06/30 16:53:14;;;;;;;;;;;;;;;;;;5069997;28;48122;-79
2022/06/30 16:55:40;;;;;;;;;;;;;;;;;;5077020;28;44017;-78
2022/06/30 16:58:07;;;;;;;;;;;;;;;;;;5079003;28;47485;-80
2022/06/30 17:00:33;;;;;;;;;;;;;;;;;;5072225;28;48139;-81
2022/06/30 17:02:59;;;;;;;;;;;;;;;;;;5077845;28;43735;-80